sensor_id;sensor_type;location;lat;lon;timestamp;P1;durP1;ratioP1;P2;durP2;ratioP2
71106;SDS011;58763;47.982;11.516;2023-02-23T00:00:32;14.32;;;8.70;;
71106;SDS011;58763;47.982;11.516;2023-02-23T00:02:58;16.92;;;8.98;;
71106;SDS011;58763;47.982;11.516;2023-02-23T00:05:29;16.98;;;9.18;;
71106;SDS011;58763;47.982;11.516;2023-02-23T00:07:56;16.13;;;9.02;;
71106;SDS011;58763;47.982;11.516;2023-02-23T00:10:22;17.98;;;9.07;;
71106;SDS011;58763;47.982;11.516;2023-02-23T00:12:55;16.60;;;9.80;;
71106;SDS011;58763;47.982;11.516;2023-02-23T00:15:25;18.33;;;10.15;;
71106;SDS011;58763;47.982;11.516;2023-02-23T00:17:52;18.08;;;9.52;;
71106;SDS011;58763;47.982;11.516;2023-02-23T00:20:19;18.27;;;9.70;;
71106;SDS011;58763;47.982;11.516;2023-02-23T00:22:51;17.90;;;10.05;;
71106;SDS011;58763;47.982;11.516;2023-02-23T00:25:17;16.95;;;9.20;;
71106;SDS011;58763;47.982;11.516;2023-02-23T00:27:43;16.13;;;9.63;;
71106;SDS011;58763;47.982;11.516;2023-02-23T00:30:14;17.52;;;9.57;;
71106;SDS011;58763;47.982;11.516;2023-02-23T00:32:42;18.33;;;9.48;;
71106;SDS011;58763;47.982;11.516;2023-02-23T00:35:08;16.17;;;9.82;;
71106;SDS011;58763;47.982;11.516;2023-02-23T00:37:36;16.30;;;9.07;;
71106;SDS011;58763;47.982;11.516;2023-02-23T00:40:02;18.52;;;9.65;;
71106;SDS011;58763;47.982;11.516;2023-02-23T00:42:31;17.48;;;9.25;;
71106;SDS011;58763;47.982;11.516;2023-02-23T00:44:57;18.48;;;9.85;;
71106;SDS011;58763;47.982;11.516;2023-02-23T00:47:22;19.23;;;9.75;;
71106;SDS011;58763;47.982;11.516;2023-02-23T00:49:48;18.55;;;9.35;;
71106;SDS011;58763;47.982;11.516;2023-02-23T00:52:13;18.80;;;9.63;;
71106;SDS011;58763;47.982;11.516;2023-02-23T00:54:39;16.83;;;9.52;;
71106;SDS011;58763;47.982;11.516;2023-02-23T00:57:05;20.00;;;9.38;;
71106;SDS011;58763;47.982;11.516;2023-02-23T00:59:30;16.75;;;9.70;;
71106;SDS011;58763;47.982;11.516;2023-02-23T01:01:55;20.23;;;10.43;;
71106;SDS011;58763;47.982;11.516;2023-02-23T01:04:21;16.60;;;9.95;;
71106;SDS011;58763;47.982;11.516;2023-02-23T01:06:49;17.25;;;8.98;;
71106;SDS011;58763;47.982;11.516;2023-02-23T01:09:15;14.93;;;9.02;;
71106;SDS011;58763;47.982;11.516;2023-02-23T01:11:51;18.95;;;9.23;;
71106;SDS011;58763;47.982;11.516;2023-02-23T01:14:17;15.43;;;9.13;;
71106;SDS011;58763;47.982;11.516;2023-02-23T01:16:42;17.15;;;8.52;;
71106;SDS011;58763;47.982;11.516;2023-02-23T01:19:08;14.82;;;8.85;;
71106;SDS011;58763;47.982;11.516;2023-02-23T01:21:35;16.83;;;8.75;;
71106;SDS011;58763;47.982;11.516;2023-02-23T01:24:02;14.82;;;8.88;;
71106;SDS011;58763;47.982;11.516;2023-02-23T01:26:29;16.02;;;9.35;;
71106;SDS011;58763;47.982;11.516;2023-02-23T01:28:59;16.95;;;9.35;;
71106;SDS011;58763;47.982;11.516;2023-02-23T01:31:27;17.98;;;9.38;;
71106;SDS011;58763;47.982;11.516;2023-02-23T01:33:54;17.30;;;9.57;;
71106;SDS011;58763;47.982;11.516;2023-02-23T01:36:24;16.30;;;8.73;;
71106;SDS011;58763;47.982;11.516;2023-02-23T01:38:50;17.60;;;9.35;;
71106;SDS011;58763;47.982;11.516;2023-02-23T01:41:20;18.63;;;10.40;;
71106;SDS011;58763;47.982;11.516;2023-02-23T01:46:24;19.15;;;10.43;;
71106;SDS011;58763;47.982;11.516;2023-02-23T01:48:50;17.88;;;10.45;;
71106;SDS011;58763;47.982;11.516;2023-02-23T01:51:20;20.02;;;10.88;;
71106;SDS011;58763;47.982;11.516;2023-02-23T01:54:03;19.23;;;10.65;;
71106;SDS011;58763;47.982;11.516;2023-02-23T01:56:43;19.88;;;10.98;;
71106;SDS011;58763;47.982;11.516;2023-02-23T02:01:39;17.95;;;9.93;;
71106;SDS011;58763;47.982;11.516;2023-02-23T02:04:06;21.20;;;10.73;;
71106;SDS011;58763;47.982;11.516;2023-02-23T02:06:33;16.88;;;9.82;;
71106;SDS011;58763;47.982;11.516;2023-02-23T02:09:06;16.98;;;9.70;;
71106;SDS011;58763;47.982;11.516;2023-02-23T02:11:34;19.45;;;10.70;;
71106;SDS011;58763;47.982;11.516;2023-02-23T02:25:19;18.63;;;10.00;;
71106;SDS011;58763;47.982;11.516;2023-02-23T02:27:59;22.08;;;10.43;;
71106;SDS011;58763;47.982;11.516;2023-02-23T02:47:29;21.63;;;10.73;;
71106;SDS011;58763;47.982;11.516;2023-02-23T02:50:10;17.98;;;10.50;;
71106;SDS011;58763;47.982;11.516;2023-02-23T02:52:41;20.05;;;10.85;;
71106;SDS011;58763;47.982;11.516;2023-02-23T02:55:25;16.55;;;9.85;;
71106;SDS011;58763;47.982;11.516;2023-02-23T02:57:55;19.33;;;10.65;;
71106;SDS011;58763;47.982;11.516;2023-02-23T03:00:35;20.52;;;10.80;;
71106;SDS011;58763;47.982;11.516;2023-02-23T03:03:35;18.98;;;10.35;;
71106;SDS011;58763;47.982;11.516;2023-02-23T03:06:22;21.25;;;10.43;;
71106;SDS011;58763;47.982;11.516;2023-02-23T03:09:19;19.58;;;9.73;;
71106;SDS011;58763;47.982;11.516;2023-02-23T03:21:14;21.20;;;11.43;;
71106;SDS011;58763;47.982;11.516;2023-02-23T03:24:16;18.73;;;10.68;;
71106;SDS011;58763;47.982;11.516;2023-02-23T03:27:16;21.20;;;10.55;;
71106;SDS011;58763;47.982;11.516;2023-02-23T03:30:16;20.83;;;11.07;;
71106;SDS011;58763;47.982;11.516;2023-02-23T03:33:05;21.42;;;10.75;;
71106;SDS011;58763;47.982;11.516;2023-02-23T03:35:57;20.00;;;11.40;;
71106;SDS011;58763;47.982;11.516;2023-02-23T03:42:15;23.10;;;11.70;;
71106;SDS011;58763;47.982;11.516;2023-02-23T03:45:03;22.42;;;12.70;;
71106;SDS011;58763;47.982;11.516;2023-02-23T03:47:50;22.35;;;11.70;;
71106;SDS011;58763;47.982;11.516;2023-02-23T03:51:00;20.40;;;11.40;;
71106;SDS011;58763;47.982;11.516;2023-02-23T03:53:53;19.80;;;10.60;;
71106;SDS011;58763;47.982;11.516;2023-02-23T03:56:47;20.83;;;11.63;;
71106;SDS011;58763;47.982;11.516;2023-02-23T03:59:36;20.80;;;10.80;;
71106;SDS011;58763;47.982;11.516;2023-02-23T04:02:25;19.00;;;11.02;;
71106;SDS011;58763;47.982;11.516;2023-02-23T04:05:14;20.42;;;11.05;;
71106;SDS011;58763;47.982;11.516;2023-02-23T04:08:01;18.50;;;10.27;;
71106;SDS011;58763;47.982;11.516;2023-02-23T04:10:53;20.23;;;10.73;;
71106;SDS011;58763;47.982;11.516;2023-02-23T04:13:47;19.48;;;10.98;;
71106;SDS011;58763;47.982;11.516;2023-02-23T04:16:15;21.75;;;11.43;;
71106;SDS011;58763;47.982;11.516;2023-02-23T04:18:41;22.13;;;11.82;;
71106;SDS011;58763;47.982;11.516;2023-02-23T04:21:07;19.15;;;11.52;;
71106;SDS011;58763;47.982;11.516;2023-02-23T04:23:32;23.13;;;11.90;;
71106;SDS011;58763;47.982;11.516;2023-02-23T04:26:01;20.25;;;11.05;;
71106;SDS011;58763;47.982;11.516;2023-02-23T04:28:26;19.95;;;10.43;;
71106;SDS011;58763;47.982;11.516;2023-02-23T04:30:52;21.33;;;11.05;;
71106;SDS011;58763;47.982;11.516;2023-02-23T04:33:18;19.25;;;11.35;;
71106;SDS011;58763;47.982;11.516;2023-02-23T04:35:45;17.80;;;10.40;;
71106;SDS011;58763;47.982;11.516;2023-02-23T04:38:11;20.20;;;11.07;;
71106;SDS011;58763;47.982;11.516;2023-02-23T04:40:36;18.65;;;10.65;;
71106;SDS011;58763;47.982;11.516;2023-02-23T04:43:01;20.33;;;11.25;;
71106;SDS011;58763;47.982;11.516;2023-02-23T04:45:27;20.88;;;11.13;;
71106;SDS011;58763;47.982;11.516;2023-02-23T04:47:53;19.27;;;10.93;;
71106;SDS011;58763;47.982;11.516;2023-02-23T04:50:18;19.75;;;10.98;;
71106;SDS011;58763;47.982;11.516;2023-02-23T04:52:44;19.92;;;10.95;;
71106;SDS011;58763;47.982;11.516;2023-02-23T04:55:14;17.20;;;10.52;;
71106;SDS011;58763;47.982;11.516;2023-02-23T04:57:43;18.67;;;11.07;;
71106;SDS011;58763;47.982;11.516;2023-02-23T05:00:09;19.65;;;10.43;;
71106;SDS011;58763;47.982;11.516;2023-02-23T05:02:34;19.02;;;10.65;;
71106;SDS011;58763;47.982;11.516;2023-02-23T05:05:00;24.23;;;12.93;;
71106;SDS011;58763;47.982;11.516;2023-02-23T05:07:25;26.58;;;13.55;;
71106;SDS011;58763;47.982;11.516;2023-02-23T05:09:51;20.92;;;10.82;;
71106;SDS011;58763;47.982;11.516;2023-02-23T05:12:16;20.02;;;10.40;;
71106;SDS011;58763;47.982;11.516;2023-02-23T05:14:42;19.25;;;10.30;;
71106;SDS011;58763;47.982;11.516;2023-02-23T05:17:07;17.90;;;10.20;;
71106;SDS011;58763;47.982;11.516;2023-02-23T05:19:33;20.33;;;11.43;;
71106;SDS011;58763;47.982;11.516;2023-02-23T05:21:58;26.77;;;13.35;;
71106;SDS011;58763;47.982;11.516;2023-02-23T05:24:23;20.35;;;11.60;;
71106;SDS011;58763;47.982;11.516;2023-02-23T05:26:49;20.85;;;10.75;;
71106;SDS011;58763;47.982;11.516;2023-02-23T05:29:15;19.10;;;11.00;;
71106;SDS011;58763;47.982;11.516;2023-02-23T05:31:41;19.88;;;11.38;;
71106;SDS011;58763;47.982;11.516;2023-02-23T05:34:06;21.75;;;10.55;;
71106;SDS011;58763;47.982;11.516;2023-02-23T05:36:31;17.42;;;9.95;;
71106;SDS011;58763;47.982;11.516;2023-02-23T05:38:57;18.83;;;10.15;;
71106;SDS011;58763;47.982;11.516;2023-02-23T05:41:22;15.57;;;9.52;;
71106;SDS011;58763;47.982;11.516;2023-02-23T05:43:48;20.00;;;10.70;;
71106;SDS011;58763;47.982;11.516;2023-02-23T05:46:22;18.08;;;10.65;;
71106;SDS011;58763;47.982;11.516;2023-02-23T05:48:50;17.38;;;10.40;;
71106;SDS011;58763;47.982;11.516;2023-02-23T05:51:19;19.25;;;10.23;;
71106;SDS011;58763;47.982;11.516;2023-02-23T05:53:45;18.88;;;10.48;;
71106;SDS011;58763;47.982;11.516;2023-02-23T05:56:14;19.25;;;10.00;;
71106;SDS011;58763;47.982;11.516;2023-02-23T05:58:45;17.48;;;9.35;;
71106;SDS011;58763;47.982;11.516;2023-02-23T06:01:14;19.08;;;9.85;;
71106;SDS011;58763;47.982;11.516;2023-02-23T06:03:41;17.60;;;10.15;;
71106;SDS011;58763;47.982;11.516;2023-02-23T06:06:07;18.05;;;10.10;;
71106;SDS011;58763;47.982;11.516;2023-02-23T06:08:33;17.73;;;9.77;;
71106;SDS011;58763;47.982;11.516;2023-02-23T06:10:58;18.40;;;10.23;;
71106;SDS011;58763;47.982;11.516;2023-02-23T06:13:24;19.33;;;10.43;;
71106;SDS011;58763;47.982;11.516;2023-02-23T06:15:49;18.45;;;10.23;;
71106;SDS011;58763;47.982;11.516;2023-02-23T06:18:15;19.38;;;10.55;;
71106;SDS011;58763;47.982;11.516;2023-02-23T06:20:41;17.65;;;9.80;;
71106;SDS011;58763;47.982;11.516;2023-02-23T06:23:07;17.02;;;9.40;;
71106;SDS011;58763;47.982;11.516;2023-02-23T06:25:33;18.15;;;9.65;;
71106;SDS011;58763;47.982;11.516;2023-02-23T06:27:58;19.55;;;10.15;;
71106;SDS011;58763;47.982;11.516;2023-02-23T06:30:24;16.27;;;9.82;;
71106;SDS011;58763;47.982;11.516;2023-02-23T06:32:49;18.55;;;10.25;;
71106;SDS011;58763;47.982;11.516;2023-02-23T06:35:15;17.25;;;9.50;;
71106;SDS011;58763;47.982;11.516;2023-02-23T06:37:41;20.73;;;10.25;;
71106;SDS011;58763;47.982;11.516;2023-02-23T06:40:07;22.05;;;9.30;;
71106;SDS011;58763;47.982;11.516;2023-02-23T06:42:33;18.38;;;10.13;;
71106;SDS011;58763;47.982;11.516;2023-02-23T06:45:00;16.85;;;10.18;;
71106;SDS011;58763;47.982;11.516;2023-02-23T06:47:26;17.60;;;10.05;;
71106;SDS011;58763;47.982;11.516;2023-02-23T06:49:51;17.45;;;10.45;;
71106;SDS011;58763;47.982;11.516;2023-02-23T06:52:16;18.55;;;10.45;;
71106;SDS011;58763;47.982;11.516;2023-02-23T06:54:42;22.20;;;10.68;;
71106;SDS011;58763;47.982;11.516;2023-02-23T06:57:08;16.90;;;9.70;;
71106;SDS011;58763;47.982;11.516;2023-02-23T06:59:34;17.80;;;10.27;;
71106;SDS011;58763;47.982;11.516;2023-02-23T07:02:02;19.65;;;10.43;;
71106;SDS011;58763;47.982;11.516;2023-02-23T07:04:31;20.50;;;10.75;;
71106;SDS011;58763;47.982;11.516;2023-02-23T07:06:57;18.35;;;9.95;;
71106;SDS011;58763;47.982;11.516;2023-02-23T07:09:23;18.38;;;10.60;;
71106;SDS011;58763;47.982;11.516;2023-02-23T07:11:48;20.60;;;10.48;;
71106;SDS011;58763;47.982;11.516;2023-02-23T07:14:14;19.55;;;11.10;;
71106;SDS011;58763;47.982;11.516;2023-02-23T07:16:39;20.63;;;10.77;;
71106;SDS011;58763;47.982;11.516;2023-02-23T07:19:05;21.88;;;11.40;;
71106;SDS011;58763;47.982;11.516;2023-02-23T07:21:31;21.40;;;11.43;;
71106;SDS011;58763;47.982;11.516;2023-02-23T07:23:57;18.58;;;11.02;;
71106;SDS011;58763;47.982;11.516;2023-02-23T07:26:24;23.17;;;11.10;;
71106;SDS011;58763;47.982;11.516;2023-02-23T07:28:49;22.50;;;11.48;;
71106;SDS011;58763;47.982;11.516;2023-02-23T07:31:15;19.48;;;11.75;;
71106;SDS011;58763;47.982;11.516;2023-02-23T07:33:41;22.67;;;12.35;;
71106;SDS011;58763;47.982;11.516;2023-02-23T07:36:06;21.52;;;12.57;;
71106;SDS011;58763;47.982;11.516;2023-02-23T07:38:32;21.60;;;11.73;;
71106;SDS011;58763;47.982;11.516;2023-02-23T07:40:58;21.23;;;11.60;;
71106;SDS011;58763;47.982;11.516;2023-02-23T07:43:24;29.27;;;13.13;;
71106;SDS011;58763;47.982;11.516;2023-02-23T07:45:49;20.00;;;11.82;;
71106;SDS011;58763;47.982;11.516;2023-02-23T07:48:16;27.95;;;12.20;;
71106;SDS011;58763;47.982;11.516;2023-02-23T07:50:42;19.58;;;10.95;;
71106;SDS011;58763;47.982;11.516;2023-02-23T07:53:07;19.92;;;10.65;;
71106;SDS011;58763;47.982;11.516;2023-02-23T07:55:33;17.55;;;10.45;;
71106;SDS011;58763;47.982;11.516;2023-02-23T07:57:59;20.63;;;11.52;;
71106;SDS011;58763;47.982;11.516;2023-02-23T08:00:24;22.10;;;11.23;;
71106;SDS011;58763;47.982;11.516;2023-02-23T08:02:51;21.77;;;10.88;;
71106;SDS011;58763;47.982;11.516;2023-02-23T08:05:17;18.33;;;10.90;;
71106;SDS011;58763;47.982;11.516;2023-02-23T08:07:43;22.00;;;10.88;;
71106;SDS011;58763;47.982;11.516;2023-02-23T08:10:10;18.95;;;10.30;;
71106;SDS011;58763;47.982;11.516;2023-02-23T08:12:35;18.70;;;10.32;;
71106;SDS011;58763;47.982;11.516;2023-02-23T08:15:01;16.42;;;9.63;;
71106;SDS011;58763;47.982;11.516;2023-02-23T08:17:32;17.35;;;9.90;;
71106;SDS011;58763;47.982;11.516;2023-02-23T08:20:04;16.55;;;10.02;;
71106;SDS011;58763;47.982;11.516;2023-02-23T08:22:31;18.33;;;10.02;;
71106;SDS011;58763;47.982;11.516;2023-02-23T08:24:56;18.13;;;10.18;;
71106;SDS011;58763;47.982;11.516;2023-02-23T08:27:22;18.77;;;10.40;;
71106;SDS011;58763;47.982;11.516;2023-02-23T08:29:48;21.30;;;11.50;;
71106;SDS011;58763;47.982;11.516;2023-02-23T08:32:16;17.30;;;9.63;;
71106;SDS011;58763;47.982;11.516;2023-02-23T08:34:42;20.40;;;10.65;;
71106;SDS011;58763;47.982;11.516;2023-02-23T08:37:08;18.63;;;10.18;;
71106;SDS011;58763;47.982;11.516;2023-02-23T08:39:34;24.30;;;11.00;;
71106;SDS011;58763;47.982;11.516;2023-02-23T08:42:00;19.85;;;10.80;;
71106;SDS011;58763;47.982;11.516;2023-02-23T08:44:26;20.92;;;10.93;;
71106;SDS011;58763;47.982;11.516;2023-02-23T08:46:51;23.33;;;11.20;;
71106;SDS011;58763;47.982;11.516;2023-02-23T08:49:18;20.45;;;12.00;;
71106;SDS011;58763;47.982;11.516;2023-02-23T08:51:44;19.50;;;11.60;;
71106;SDS011;58763;47.982;11.516;2023-02-23T08:54:11;19.85;;;11.55;;
71106;SDS011;58763;47.982;11.516;2023-02-23T08:56:42;21.30;;;12.38;;
71106;SDS011;58763;47.982;11.516;2023-02-23T08:59:09;19.75;;;11.70;;
71106;SDS011;58763;47.982;11.516;2023-02-23T09:01:36;22.13;;;11.48;;
71106;SDS011;58763;47.982;11.516;2023-02-23T09:04:02;21.50;;;11.63;;
71106;SDS011;58763;47.982;11.516;2023-02-23T09:06:28;17.13;;;10.43;;
71106;SDS011;58763;47.982;11.516;2023-02-23T09:08:54;20.58;;;10.65;;
71106;SDS011;58763;47.982;11.516;2023-02-23T09:11:21;19.75;;;10.95;;
71106;SDS011;58763;47.982;11.516;2023-02-23T09:13:47;18.98;;;10.98;;
71106;SDS011;58763;47.982;11.516;2023-02-23T09:16:13;22.65;;;11.02;;
71106;SDS011;58763;47.982;11.516;2023-02-23T09:18:38;22.27;;;10.80;;
71106;SDS011;58763;47.982;11.516;2023-02-23T09:21:05;17.85;;;9.82;;
71106;SDS011;58763;47.982;11.516;2023-02-23T09:23:35;20.80;;;10.02;;
71106;SDS011;58763;47.982;11.516;2023-02-23T09:26:06;18.40;;;10.18;;
71106;SDS011;58763;47.982;11.516;2023-02-23T09:28:33;20.25;;;11.27;;
71106;SDS011;58763;47.982;11.516;2023-02-23T09:33:32;21.90;;;10.73;;
71106;SDS011;58763;47.982;11.516;2023-02-23T09:35:57;38.15;;;18.33;;
71106;SDS011;58763;47.982;11.516;2023-02-23T09:38:22;18.27;;;10.48;;
71106;SDS011;58763;47.982;11.516;2023-02-23T09:40:49;20.33;;;10.30;;
71106;SDS011;58763;47.982;11.516;2023-02-23T09:43:22;17.00;;;9.32;;
71106;SDS011;58763;47.982;11.516;2023-02-23T09:46:01;17.55;;;9.35;;
71106;SDS011;58763;47.982;11.516;2023-02-23T09:48:38;18.65;;;10.57;;
71106;SDS011;58763;47.982;11.516;2023-02-23T09:51:05;18.65;;;10.77;;
71106;SDS011;58763;47.982;11.516;2023-02-23T09:56:02;17.65;;;9.57;;
71106;SDS011;58763;47.982;11.516;2023-02-23T09:58:35;18.90;;;10.07;;
71106;SDS011;58763;47.982;11.516;2023-02-23T10:01:10;15.18;;;8.60;;
71106;SDS011;58763;47.982;11.516;2023-02-23T10:03:54;14.55;;;8.23;;
71106;SDS011;58763;47.982;11.516;2023-02-23T10:06:31;17.38;;;8.43;;
71106;SDS011;58763;47.982;11.516;2023-02-23T10:11:58;17.08;;;8.10;;
71106;SDS011;58763;47.982;11.516;2023-02-23T10:20:18;12.73;;;7.80;;
71106;SDS011;58763;47.982;11.516;2023-02-23T10:22:50;13.95;;;7.40;;
71106;SDS011;58763;47.982;11.516;2023-02-23T10:25:18;11.20;;;6.22;;
71106;SDS011;58763;47.982;11.516;2023-02-23T10:27:48;13.57;;;6.85;;
71106;SDS011;58763;47.982;11.516;2023-02-23T10:32:52;14.20;;;7.70;;
71106;SDS011;58763;47.982;11.516;2023-02-23T10:35:36;12.85;;;7.25;;
71106;SDS011;58763;47.982;11.516;2023-02-23T10:38:03;12.15;;;6.70;;
71106;SDS011;58763;47.982;11.516;2023-02-23T10:40:30;15.20;;;6.35;;
71106;SDS011;58763;47.982;11.516;2023-02-23T10:42:57;13.90;;;6.90;;
71106;SDS011;58763;47.982;11.516;2023-02-23T10:45:26;10.13;;;6.32;;
71106;SDS011;58763;47.982;11.516;2023-02-23T10:48:06;13.13;;;6.10;;
71106;SDS011;58763;47.982;11.516;2023-02-23T10:50:35;11.30;;;6.13;;
71106;SDS011;58763;47.982;11.516;2023-02-23T10:53:17;11.48;;;6.70;;
71106;SDS011;58763;47.982;11.516;2023-02-23T10:55:58;9.60;;;5.35;;
71106;SDS011;58763;47.982;11.516;2023-02-23T10:58:29;11.77;;;5.95;;
71106;SDS011;58763;47.982;11.516;2023-02-23T11:00:59;10.60;;;5.80;;
71106;SDS011;58763;47.982;11.516;2023-02-23T11:06:28;8.00;;;3.80;;
71106;SDS011;58763;47.982;11.516;2023-02-23T11:08:54;6.88;;;3.65;;
71106;SDS011;58763;47.982;11.516;2023-02-23T11:13:53;6.00;;;2.58;;
71106;SDS011;58763;47.982;11.516;2023-02-23T11:21:28;5.30;;;2.30;;
71106;SDS011;58763;47.982;11.516;2023-02-23T11:26:47;5.38;;;2.72;;
71106;SDS011;58763;47.982;11.516;2023-02-23T11:31:57;7.60;;;3.17;;
71106;SDS011;58763;47.982;11.516;2023-02-23T11:34:28;5.20;;;2.40;;
71106;SDS011;58763;47.982;11.516;2023-02-23T11:36:58;7.32;;;3.40;;
71106;SDS011;58763;47.982;11.516;2023-02-23T11:39:28;6.10;;;3.03;;
71106;SDS011;58763;47.982;11.516;2023-02-23T11:42:14;8.60;;;3.60;;
71106;SDS011;58763;47.982;11.516;2023-02-23T11:44:44;6.80;;;4.20;;
71106;SDS011;58763;47.982;11.516;2023-02-23T11:47:15;7.25;;;4.03;;
71106;SDS011;58763;47.982;11.516;2023-02-23T11:49:44;8.47;;;3.77;;
71106;SDS011;58763;47.982;11.516;2023-02-23T11:52:16;6.82;;;3.85;;
71106;SDS011;58763;47.982;11.516;2023-02-23T11:54:53;7.10;;;3.17;;
71106;SDS011;58763;47.982;11.516;2023-02-23T11:57:22;5.60;;;3.05;;
71106;SDS011;58763;47.982;11.516;2023-02-23T11:59:49;6.88;;;3.20;;
71106;SDS011;58763;47.982;11.516;2023-02-23T12:04:52;7.78;;;3.80;;
71106;SDS011;58763;47.982;11.516;2023-02-23T12:07:40;6.10;;;3.17;;
71106;SDS011;58763;47.982;11.516;2023-02-23T12:10:23;7.72;;;3.83;;
71106;SDS011;58763;47.982;11.516;2023-02-23T12:18:04;9.82;;;4.35;;
71106;SDS011;58763;47.982;11.516;2023-02-23T12:20:40;8.40;;;4.05;;
71106;SDS011;58763;47.982;11.516;2023-02-23T12:23:09;8.73;;;4.75;;
71106;SDS011;58763;47.982;11.516;2023-02-23T12:25:45;9.02;;;4.53;;
71106;SDS011;58763;47.982;11.516;2023-02-23T12:31:05;7.78;;;4.13;;
71106;SDS011;58763;47.982;11.516;2023-02-23T12:33:47;8.40;;;4.35;;
71106;SDS011;58763;47.982;11.516;2023-02-23T12:39:07;11.25;;;3.97;;
71106;SDS011;58763;47.982;11.516;2023-02-23T12:41:47;7.38;;;4.00;;
71106;SDS011;58763;47.982;11.516;2023-02-23T12:46:49;5.70;;;2.95;;
71106;SDS011;58763;47.982;11.516;2023-02-23T12:49:40;7.70;;;3.13;;
71106;SDS011;58763;47.982;11.516;2023-02-23T12:52:11;9.05;;;3.78;;
71106;SDS011;58763;47.982;11.516;2023-02-23T12:55:00;8.20;;;3.38;;
71106;SDS011;58763;47.982;11.516;2023-02-23T12:57:42;7.15;;;3.30;;
71106;SDS011;58763;47.982;11.516;2023-02-23T13:00:34;7.47;;;3.15;;
71106;SDS011;58763;47.982;11.516;2023-02-23T13:06:28;6.90;;;3.05;;
71106;SDS011;58763;47.982;11.516;2023-02-23T13:11:50;6.70;;;2.88;;
71106;SDS011;58763;47.982;11.516;2023-02-23T13:17:36;7.80;;;3.55;;
71106;SDS011;58763;47.982;11.516;2023-02-23T13:20:15;6.47;;;3.00;;
71106;SDS011;58763;47.982;11.516;2023-02-23T13:22:47;7.20;;;2.90;;
71106;SDS011;58763;47.982;11.516;2023-02-23T13:25:26;7.35;;;3.35;;
71106;SDS011;58763;47.982;11.516;2023-02-23T13:28:02;5.50;;;2.75;;
71106;SDS011;58763;47.982;11.516;2023-02-23T13:30:31;6.15;;;2.95;;
71106;SDS011;58763;47.982;11.516;2023-02-23T13:32:58;7.88;;;2.58;;
71106;SDS011;58763;47.982;11.516;2023-02-23T13:35:26;7.22;;;3.10;;
71106;SDS011;58763;47.982;11.516;2023-02-23T13:38:45;5.97;;;2.92;;
71106;SDS011;58763;47.982;11.516;2023-02-23T13:41:08;5.97;;;2.72;;
71106;SDS011;58763;47.982;11.516;2023-02-23T13:44:39;6.18;;;2.88;;
71106;SDS011;58763;47.982;11.516;2023-02-23T13:49:55;5.43;;;2.40;;
71106;SDS011;58763;47.982;11.516;2023-02-23T13:57:53;7.53;;;2.35;;
71106;SDS011;58763;47.982;11.516;2023-02-23T14:00:21;6.13;;;2.42;;
71106;SDS011;58763;47.982;11.516;2023-02-23T14:02:48;6.63;;;2.58;;
71106;SDS011;58763;47.982;11.516;2023-02-23T14:05:16;5.07;;;2.05;;
71106;SDS011;58763;47.982;11.516;2023-02-23T14:07:46;4.72;;;2.05;;
71106;SDS011;58763;47.982;11.516;2023-02-23T14:15:48;3.45;;;1.30;;
71106;SDS011;58763;47.982;11.516;2023-02-23T14:18:31;5.68;;;1.35;;
71106;SDS011;58763;47.982;11.516;2023-02-23T14:23:47;4.25;;;1.20;;
71106;SDS011;58763;47.982;11.516;2023-02-23T14:37:16;4.50;;;1.20;;
71106;SDS011;58763;47.982;11.516;2023-02-23T14:39:47;3.38;;;1.38;;
71106;SDS011;58763;47.982;11.516;2023-02-23T14:42:18;4.30;;;1.33;;
71106;SDS011;58763;47.982;11.516;2023-02-23T14:44:47;3.33;;;1.30;;
71106;SDS011;58763;47.982;11.516;2023-02-23T14:47:16;4.55;;;0.90;;
71106;SDS011;58763;47.982;11.516;2023-02-23T14:49:55;4.32;;;1.05;;
71106;SDS011;58763;47.982;11.516;2023-02-23T14:52:24;7.03;;;2.88;;
71106;SDS011;58763;47.982;11.516;2023-02-23T14:55:05;4.97;;;2.30;;
71106;SDS011;58763;47.982;11.516;2023-02-23T14:57:34;3.45;;;1.10;;
71106;SDS011;58763;47.982;11.516;2023-02-23T15:00:01;11.82;;;8.30;;
71106;SDS011;58763;47.982;11.516;2023-02-23T15:02:31;4.03;;;1.38;;
71106;SDS011;58763;47.982;11.516;2023-02-23T15:04:57;10.30;;;6.10;;
71106;SDS011;58763;47.982;11.516;2023-02-23T15:07:28;6.28;;;2.60;;
71106;SDS011;58763;47.982;11.516;2023-02-23T15:09:57;7.70;;;2.58;;
71106;SDS011;58763;47.982;11.516;2023-02-23T15:12:24;5.15;;;1.60;;
71106;SDS011;58763;47.982;11.516;2023-02-23T15:14:57;4.87;;;1.70;;
71106;SDS011;58763;47.982;11.516;2023-02-23T15:17:26;7.82;;;3.30;;
71106;SDS011;58763;47.982;11.516;2023-02-23T15:20:15;6.95;;;4.93;;
71106;SDS011;58763;47.982;11.516;2023-02-23T15:22:44;5.32;;;1.67;;
71106;SDS011;58763;47.982;11.516;2023-02-23T15:25:17;3.78;;;1.17;;
71106;SDS011;58763;47.982;11.516;2023-02-23T15:27:45;3.40;;;1.38;;
71106;SDS011;58763;47.982;11.516;2023-02-23T15:30:42;3.53;;;1.58;;
71106;SDS011;58763;47.982;11.516;2023-02-23T15:33:10;4.85;;;1.40;;
71106;SDS011;58763;47.982;11.516;2023-02-23T15:35:42;6.18;;;1.20;;
71106;SDS011;58763;47.982;11.516;2023-02-23T15:38:14;5.05;;;1.20;;
71106;SDS011;58763;47.982;11.516;2023-02-23T15:40:44;3.45;;;0.93;;
71106;SDS011;58763;47.982;11.516;2023-02-23T15:43:10;6.15;;;1.48;;
71106;SDS011;58763;47.982;11.516;2023-02-23T15:45:37;3.38;;;1.00;;
71106;SDS011;58763;47.982;11.516;2023-02-23T15:48:07;3.85;;;0.93;;
71106;SDS011;58763;47.982;11.516;2023-02-23T15:50:43;4.63;;;1.05;;
71106;SDS011;58763;47.982;11.516;2023-02-23T15:53:28;4.30;;;1.08;;
71106;SDS011;58763;47.982;11.516;2023-02-23T15:56:07;4.05;;;1.08;;
71106;SDS011;58763;47.982;11.516;2023-02-23T15:58:39;3.13;;;1.23;;
71106;SDS011;58763;47.982;11.516;2023-02-23T16:01:11;2.83;;;0.80;;
71106;SDS011;58763;47.982;11.516;2023-02-23T16:03:45;3.88;;;0.80;;
71106;SDS011;58763;47.982;11.516;2023-02-23T16:11:43;3.72;;;1.17;;
71106;SDS011;58763;47.982;11.516;2023-02-23T16:14:12;2.92;;;0.90;;
71106;SDS011;58763;47.982;11.516;2023-02-23T16:16:41;2.97;;;0.80;;
71106;SDS011;58763;47.982;11.516;2023-02-23T16:19:11;4.25;;;0.80;;
71106;SDS011;58763;47.982;11.516;2023-02-23T16:21:39;3.22;;;1.00;;
71106;SDS011;58763;47.982;11.516;2023-02-23T16:24:05;3.60;;;1.15;;
71106;SDS011;58763;47.982;11.516;2023-02-23T16:26:33;15.63;;;2.30;;
71106;SDS011;58763;47.982;11.516;2023-02-23T16:29:39;6.68;;;2.00;;
71106;SDS011;58763;47.982;11.516;2023-02-23T16:32:24;5.22;;;1.50;;
71106;SDS011;58763;47.982;11.516;2023-02-23T16:35:00;4.53;;;1.00;;
71106;SDS011;58763;47.982;11.516;2023-02-23T16:37:32;5.22;;;1.33;;
71106;SDS011;58763;47.982;11.516;2023-02-23T16:39:57;9.48;;;3.13;;
71106;SDS011;58763;47.982;11.516;2023-02-23T16:42:25;5.80;;;2.55;;
71106;SDS011;58763;47.982;11.516;2023-02-23T16:44:54;5.13;;;2.10;;
71106;SDS011;58763;47.982;11.516;2023-02-23T16:49:46;3.88;;;1.50;;
71106;SDS011;58763;47.982;11.516;2023-02-23T16:52:15;3.35;;;1.40;;
71106;SDS011;58763;47.982;11.516;2023-02-23T16:54:42;5.20;;;1.38;;
71106;SDS011;58763;47.982;11.516;2023-02-23T16:57:41;5.07;;;1.17;;
71106;SDS011;58763;47.982;11.516;2023-02-23T17:00:05;6.25;;;1.30;;
71106;SDS011;58763;47.982;11.516;2023-02-23T17:02:39;5.35;;;1.08;;